Time;durP1;ratioP1;P1;durP2;ratioP2;P2;SDS_P1;SDS_P2;PMS_P1;PMS_P2;Temp;Humidity;BMP_temperature;BMP_pressure;BME280_temperature;BME280_humidity;BME280_pressure;Samples;Min_cycle;Max_cycle;Signal;HPM_P1;HPM_P2
2022/01/12 00:00:44;;;;;;;26.07;6.92;;;;;;;4.19;74.99;101339.17;1822028;79;21054;-67
2022/01/12 00:03:13;;;;;;;14.35;5.72;;;;;;;4.09;75.19;101330.94;1820319;79;21077;-69
2022/01/12 00:05:43;;;;;;;16.32;6.50;;;;;;;4.04;75.17;101328.80;1852587;77;21455;-68
2022/01/12 00:08:11;;;;;;;21.85;8.13;;;;;;;4.01;75.27;101330.11;1814603;79;21542;-70
2022/01/12 00:10:40;;;;;;;10.90;5.00;;;;;;;3.99;75.34;101332.71;1801595;80;21070;-69
2022/01/12 00:13:10;;;;;;;12.18;5.80;;;;;;;4.01;75.29;101330.11;1890619;76;21781;-69
2022/01/12 00:15:38;;;;;;;16.75;7.17;;;;;;;3.98;75.29;101327.05;1890694;76;21062;-64
2022/01/12 00:18:07;;;;;;;13.80;5.75;;;;;;;3.94;75.27;101330.55;1890740;76;21070;-65
2022/01/12 00:20:36;;;;;;;21.45;7.53;;;;;;;3.90;75.34;101333.17;1890834;76;21054;-64
2022/01/12 00:23:04;;;;;;;18.37;6.17;;;;;;;3.80;75.52;101343.61;1890728;76;21084;-65
2022/01/12 00:25:45;;;;;;;18.37;6.47;;;;;;;3.79;75.46;101337.09;1890694;76;21167;-65
2022/01/12 00:33:38;;;;;;;16.93;5.97;;;;;;;3.82;75.40;101341.87;1890761;75;21042;-66
2022/01/12 00:36:07;;;;;;;19.85;7.58;;;;;;;3.90;75.09;101342.30;1890653;76;21022;-66
2022/01/12 00:38:36;;;;;;;17.17;7.28;;;;;;;3.89;74.97;101328.82;1890825;75;21112;-66
2022/01/12 00:41:05;;;;;;;16.12;6.42;;;;;;;3.88;75.01;101345.34;1890758;76;21050;-66
2022/01/12 00:43:37;;;;;;;15.58;6.12;;;;;;;3.83;75.19;101340.12;1890736;76;21117;-66
2022/01/12 00:46:05;;;;;;;15.08;6.92;;;;;;;3.84;75.13;101336.22;1890780;76;21602;-66
2022/01/12 00:48:38;;;;;;;15.48;5.37;;;;;;;3.78;75.24;101340.14;1890622;76;21089;-66
2022/01/12 00:51:04;;;;;;;17.65;6.95;;;;;;;3.76;75.48;101336.67;1889370;76;21046;-66
2022/01/12 00:53:33;;;;;;;15.55;6.58;;;;;;;3.75;75.53;101341.44;1890946;76;21581;-66
2022/01/12 00:56:04;;;;;;;16.25;6.08;;;;;;;3.75;75.55;101341.44;1890632;76;21153;-66
2022/01/12 00:58:35;;;;;;;17.67;6.65;;;;;;;3.70;75.72;101344.48;1890704;76;21100;-66
2022/01/12 01:01:05;;;;;;;16.20;6.75;;;;;;;3.68;75.78;101344.92;1890702;75;21139;-67
2022/01/12 01:03:34;;;;;;;16.67;6.08;;;;;;;3.70;75.78;101343.62;1890874;76;21516;-66
2022/01/12 01:06:03;;;;;;;21.62;7.60;;;;;;;3.70;75.55;101345.78;1890921;76;21452;-66
2022/01/12 01:08:32;;;;;;;16.82;7.67;;;;;;;3.67;75.55;101347.97;1895780;76;21089;-67
2022/01/12 01:11:01;;;;;;;19.23;6.22;;;;;;;3.69;75.54;101342.77;1896953;76;21058;-66
2022/01/12 01:13:42;;;;;;;19.45;6.30;;;;;;;3.64;75.75;101343.19;1896800;76;21018;-67
2022/01/12 01:16:15;;;;;;;14.45;6.22;;;;;;;3.59;75.82;101341.87;1895652;76;21041;-66
2022/01/12 01:26:58;;;;;;;20.68;7.20;;;;;;;3.57;76.04;101354.48;1830835;76;21077;-72
2022/01/12 01:29:28;;;;;;;18.77;5.87;;;;;;;3.59;76.00;101356.64;1896934;76;21042;-70
2022/01/12 01:31:58;;;;;;;15.15;6.25;;;;;;;3.62;75.89;101355.35;1896867;75;21563;-71
2022/01/12 01:34:28;;;;;;;17.50;6.95;;;;;;;3.63;75.94;101354.05;1896832;76;21116;-71
2022/01/12 01:36:57;;;;;;;22.75;7.78;;;;;;;3.63;75.98;101349.26;1897029;75;21430;-71
2022/01/12 01:39:29;;;;;;;17.00;6.83;;;;;;;3.64;75.96;101353.61;1896920;76;21147;-71
2022/01/12 01:42:05;;;;;;;19.17;6.53;;;;;;;3.61;75.94;101361.41;1896954;76;21136;-69
2022/01/12 01:53:18;;;;;;;18.07;6.87;;;;;;;3.58;75.94;101362.70;1896945;76;21139;-70
2022/01/12 01:55:32;;;;;;;13.75;5.53;;;;;;;3.46;75.94;101365.75;1897070;75;21460;-70
2022/01/12 01:58:00;;;;;;;15.05;6.35;;;;;;;3.41;76.04;101362.30;1896866;76;21116;-70
2022/01/12 02:00:32;;;;;;;15.65;6.80;;;;;;;3.43;75.86;101371.39;1897110;76;21491;-70
2022/01/12 02:03:03;;;;;;;15.50;6.55;;;;;;;3.44;75.69;101368.78;1897254;76;21457;-70
2022/01/12 02:05:37;;;;;;;19.50;7.00;;;;;;;3.40;75.84;101368.80;1895460;75;21125;-68
2022/01/12 02:08:06;;;;;;;11.55;5.03;;;;;;;3.36;75.95;101369.67;1894589;75;21085;-69
2022/01/12 02:10:37;;;;;;;19.10;7.28;;;;;;;3.38;75.92;101374.00;1890300;76;21535;-69
2022/01/12 02:13:06;;;;;;;21.35;6.47;;;;;;;3.37;75.87;101374.85;1890682;76;21113;-68
2022/01/12 02:15:37;;;;;;;14.03;5.67;;;;;;;3.39;75.98;101380.92;1890797;76;21104;-68
2022/01/12 02:35:20;;;;;;;14.87;6.03;;;;;;;3.05;76.52;101382.19;1890824;76;21034;-63
2022/01/12 02:40:40;;;;;;;12.80;6.05;;;;;;;2.99;76.68;101385.19;1857830;76;21042;-62
2022/01/12 02:43:16;;;;;;;15.00;5.35;;;;;;;3.01;76.59;101386.95;1852709;76;21141;-62
2022/01/12 02:53:48;;;;;;;13.38;4.92;;;;;;;3.02;76.60;101380.87;1860928;76;21046;-63
2022/01/12 02:56:27;;;;;;;11.88;5.80;;;;;;;2.98;76.64;101380.88;1878777;76;21571;-63
2022/01/12 02:58:59;;;;;;;13.45;5.55;;;;;;;2.94;76.67;101381.30;1890591;76;21046;-59
2022/01/12 03:04:05;;;;;;;13.22;5.53;;;;;;;2.90;76.67;101386.92;1845499;78;21054;-60
2022/01/12 03:06:36;;;;;;;9.50;4.30;;;;;;;2.90;76.66;101386.06;1858272;76;21101;-60
2022/01/12 03:09:07;;;;;;;10.98;5.78;;;;;;;2.93;76.47;101392.55;1876179;76;21078;-61
2022/01/12 03:11:37;;;;;;;11.30;5.12;;;;;;;2.88;76.61;101391.69;1876140;76;21038;-60
2022/01/12 03:14:07;;;;;;;10.10;5.00;;;;;;;2.85;76.67;101382.56;1875517;76;21139;-60
2022/01/12 03:16:36;;;;;;;11.80;5.70;;;;;;;2.77;76.86;101385.59;1876303;76;21456;-60
2022/01/12 03:19:06;;;;;;;12.18;5.70;;;;;;;2.80;76.83;101394.69;1876572;76;21118;-60
2022/01/12 03:21:36;;;;;;;12.00;5.90;;;;;;;2.79;76.87;101396.86;1876553;76;21058;-66
2022/01/12 03:24:07;;;;;;;9.25;4.92;;;;;;;2.80;76.87;101401.19;1876506;76;21141;-66
2022/01/12 03:26:39;;;;;;;9.73;4.05;;;;;;;2.81;76.72;101401.64;1876493;76;21219;-65
2022/01/12 03:29:07;;;;;;;11.97;5.55;;;;;;;2.69;77.04;101398.54;1876417;76;21078;-60
2022/01/12 03:31:36;;;;;;;9.73;4.90;;;;;;;2.68;76.98;101393.78;1876574;76;21144;-61
2022/01/12 03:34:25;;;;;;;10.80;4.80;;;;;;;2.65;76.92;101383.36;1876481;76;21129;-60
2022/01/12 03:37:17;;;;;;;13.83;6.03;;;;;;;2.64;76.95;101393.34;1877061;76;21489;-61
2022/01/12 03:39:26;;;;;;;15.80;5.83;;;;;;;2.58;77.29;101397.19;1877659;76;21027;-62
2022/01/12 03:41:55;;;;;;;14.23;6.78;;;;;;;2.57;77.25;101401.97;1876649;76;21038;-61
2022/01/12 03:44:24;;;;;;;12.28;5.87;;;;;;;2.62;77.13;101404.16;1876513;76;21093;-61
2022/01/12 03:46:54;;;;;;;14.25;6.30;;;;;;;2.63;77.05;101404.59;1876453;76;21500;-61
2022/01/12 03:49:24;;;;;;;14.53;7.12;;;;;;;2.57;77.19;101403.71;1876483;76;21074;-64
2022/01/12 03:51:54;;;;;;;13.75;5.72;;;;;;;2.53;77.26;101404.53;1876375;76;21195;-65
2022/01/12 03:54:23;;;;;;;14.78;6.62;;;;;;;2.54;77.31;101405.84;1876650;76;21039;-66
2022/01/12 03:56:53;;;;;;;16.10;6.50;;;;;;;2.54;77.37;101406.28;1885623;75;21086;-62
2022/01/12 03:59:22;;;;;;;12.93;7.10;;;;;;;2.53;77.26;101408.02;1876529;76;21481;-62
2022/01/12 04:01:51;;;;;;;17.30;6.62;;;;;;;2.52;77.25;101411.47;1876454;76;21574;-61
2022/01/12 04:04:29;;;;;;;13.10;5.60;;;;;;;2.49;77.28;101406.25;1876324;76;21082;-60
2022/01/12 04:09:38;;;;;;;18.00;7.95;;;;;;;2.47;77.12;101410.57;1856578;76;21141;-60
2022/01/12 04:12:07;;;;;;;14.03;6.65;;;;;;;2.47;77.18;101404.97;1854505;77;21501;-59
2022/01/12 04:14:37;;;;;;;15.98;5.95;;;;;;;2.46;77.23;101410.16;1850818;77;21022;-60
2022/01/12 04:17:05;;;;;;;12.10;5.80;;;;;;;2.39;77.34;101410.97;1853738;77;21066;-60
2022/01/12 04:19:36;;;;;;;17.73;7.35;;;;;;;2.31;77.47;101419.59;1849295;77;21475;-61
2022/01/12 04:23:16;;;;;;;17.07;7.30;;;;;;;2.22;77.56;101424.73;1849078;77;21544;-61
2022/01/12 04:24:38;;;;;;;16.60;7.15;;;;;;;2.21;77.58;101434.67;1852025;76;21032;-60
2022/01/12 04:27:07;;;;;;;15.48;7.12;;;;;;;2.25;77.47;101431.27;1851574;77;21042;-59
2022/01/12 04:29:36;;;;;;;13.35;5.92;;;;;;;2.23;77.54;101430.39;1856864;77;21609;-59
2022/01/12 04:32:06;;;;;;;17.70;7.62;;;;;;;2.26;77.44;101431.69;1856925;77;21615;-59
2022/01/12 04:34:35;;;;;;;17.15;7.53;;;;;;;2.31;77.29;101436.92;1857043;77;21120;-59
2022/01/12 04:37:04;;;;;;;16.75;7.92;;;;;;;2.33;77.30;101442.14;1855829;77;21191;-59
2022/01/12 04:39:34;;;;;;;18.92;7.05;;;;;;;2.34;77.26;101439.96;1832319;77;21119;-59
2022/01/12 04:42:04;;;;;;;24.32;9.28;;;;;;;2.33;77.28;101438.23;1827635;78;21554;-59
2022/01/12 04:44:39;;;;;;;22.35;9.83;;;;;;;2.33;77.39;101434.34;1827837;78;21045;-59
2022/01/12 04:47:08;;;;;;;23.70;8.80;;;;;;;2.32;77.41;101439.95;1826920;78;21121;-59
2022/01/12 04:49:47;;;;;;;23.98;9.53;;;;;;;2.23;77.40;101442.48;1827496;78;21069;-59
2022/01/12 04:52:18;;;;;;;24.12;9.38;;;;;;;2.18;77.43;101448.97;1827676;78;21069;-61
2022/01/12 04:54:47;;;;;;;25.55;9.53;;;;;;;2.18;77.31;101448.11;1827884;77;21202;-58
2022/01/12 04:57:16;;;;;;;20.08;8.90;;;;;;;2.16;77.12;101448.09;1827854;78;21524;-59
2022/01/12 05:00:01;;;;;;;26.25;10.03;;;;;;;2.12;77.21;101455.40;1827718;78;21085;-59
2022/01/12 05:08:11;;;;;;;24.87;9.43;;;;;;;2.05;77.28;101445.85;1827779;78;21049;-59
2022/01/12 05:13:00;;;;;;;;;;;;;;;1.93;77.25;101459.16;1830515;78;21049;-60
2022/01/12 05:15:33;;;;;;;31.00;11.90;;;;;;;1.90;77.17;101467.34;1827658;78;20110;-59
2022/01/12 05:18:00;;;;;;;32.38;11.03;;;;;;;1.84;77.08;101479.86;1827403;78;21050;-59
2022/01/12 05:20:29;;;;;;;31.33;12.45;;;;;;;1.82;77.12;101483.31;1827717;78;21512;-59
2022/01/12 05:22:58;;;;;;;37.25;12.70;;;;;;;1.75;77.18;101487.56;1827882;78;21131;-60
2022/01/12 05:25:27;;;;;;;36.15;13.18;;;;;;;1.65;77.31;101477.97;1827831;78;21104;-59
2022/01/12 05:27:56;;;;;;;41.18;13.40;;;;;;;1.60;77.43;101480.50;1827921;78;21111;-59
2022/01/12 05:30:25;;;;;;;36.15;12.55;;;;;;;1.60;77.39;101487.43;1827779;78;21076;-60
2022/01/12 05:32:54;;;;;;;36.73;12.95;;;;;;;1.61;77.33;101483.99;1827855;78;21132;-60
2022/01/12 05:35:24;;;;;;;33.20;13.62;;;;;;;1.60;77.32;101479.64;1827879;78;21089;-59
2022/01/12 05:37:56;;;;;;;37.33;13.70;;;;;;;1.60;77.33;101491.32;1827788;78;21147;-59
2022/01/12 05:40:27;;;;;;;37.42;12.93;;;;;;;1.56;77.35;101493.02;1827145;78;21080;-60
2022/01/12 05:43:00;;;;;;;34.33;12.57;;;;;;;1.54;77.43;101496.89;1828259;78;21061;-59
2022/01/12 05:45:28;;;;;;;39.78;13.68;;;;;;;1.55;77.43;101499.08;1827818;78;21365;-59
2022/01/12 05:50:33;;;;;;;32.78;11.97;;;;;;;1.47;77.51;101500.27;1826968;78;21080;-59
2022/01/12 05:53:05;;;;;;;32.25;12.33;;;;;;;1.44;77.62;101498.96;1826186;78;21132;-59
2022/01/12 05:55:34;;;;;;;28.77;11.70;;;;;;;1.46;77.47;101505.47;1827824;78;21074;-59
2022/01/12 05:58:03;;;;;;;32.48;12.13;;;;;;;1.49;77.42;101505.05;1827833;78;21065;-61
2022/01/12 06:00:35;;;;;;;32.25;13.28;;;;;;;1.49;77.34;101515.87;1827781;78;21178;-59
2022/01/12 06:03:04;;;;;;;32.83;13.03;;;;;;;1.42;77.33;101514.95;1827766;78;21065;-61
2022/01/12 06:05:33;;;;;;;33.55;13.18;;;;;;;1.40;77.40;101518.36;1827647;78;21101;-59
2022/01/12 06:08:02;;;;;;;33.83;12.63;;;;;;;1.49;77.14;101521.05;1827832;78;21025;-60
2022/01/12 06:10:31;;;;;;;35.65;13.28;;;;;;;1.45;77.05;101520.15;1827684;78;21101;-60
2022/01/12 06:13:00;;;;;;;32.73;12.95;;;;;;;1.44;77.17;101522.32;1793408;78;21049;-60
2022/01/12 06:15:29;;;;;;;33.35;13.35;;;;;;;1.44;77.08;101526.21;1827863;78;21061;-60
2022/01/12 06:17:57;;;;;;;39.83;13.93;;;;;;;1.39;76.99;101527.02;1827784;78;21116;-60
2022/01/12 06:20:27;;;;;;;36.68;13.25;;;;;;;1.37;77.08;101524.83;1827879;78;21483;-60
2022/01/12 06:22:57;;;;;;;38.60;15.35;;;;;;;1.40;77.03;101528.30;1795049;78;21038;-59
2022/01/12 06:25:29;;;;;;;43.63;15.13;;;;;;;1.40;77.07;101532.20;1827713;78;21069;-58
2022/01/12 06:28:20;;;;;;;40.00;15.38;;;;;;;1.43;77.15;101527.05;1827865;78;21139;-59
2022/01/12 06:33:00;;;;;;;40.12;17.05;;;;;;;1.36;77.14;101529.13;1827841;78;21021;-58
2022/01/12 06:35:29;;;;;;;46.35;15.40;;;;;;;1.34;77.22;101524.35;1827807;78;21059;-59
2022/01/12 06:37:57;;;;;;;42.13;15.78;;;;;;;1.30;77.29;101525.17;1827756;78;21609;-60
2022/01/12 06:40:26;;;;;;;42.03;16.17;;;;;;;1.28;77.31;101530.34;1827721;78;21077;-60
2022/01/12 06:42:55;;;;;;;43.92;16.12;;;;;;;1.31;77.36;101537.28;1827667;78;21112;-58
2022/01/12 06:45:24;;;;;;;43.80;16.37;;;;;;;1.31;77.39;101540.77;1827745;78;21194;-59
2022/01/12 06:47:53;;;;;;;46.05;16.07;;;;;;;1.29;77.47;101545.08;1827751;78;21073;-59
2022/01/12 06:50:22;;;;;;;46.00;16.23;;;;;;;1.27;77.48;101546.78;1827885;78;21045;-59
2022/01/12 06:52:51;;;;;;;45.92;17.00;;;;;;;1.32;77.46;101548.12;1827704;78;21065;-59
2022/01/12 06:55:21;;;;;;;42.03;15.85;;;;;;;1.34;77.58;101547.70;1827666;78;21123;-60
2022/01/12 06:57:50;;;;;;;47.25;17.52;;;;;;;1.43;77.43;101550.84;1827754;78;21057;-58
2022/01/12 07:00:19;;;;;;;47.30;16.70;;;;;;;1.52;77.15;101553.11;1827725;78;21108;-58
2022/01/12 07:02:48;;;;;;;44.90;15.70;;;;;;;1.60;76.85;101543.23;1827845;78;21471;-59
2022/01/12 07:05:17;;;;;;;41.83;16.50;;;;;;;1.60;76.82;101538.91;1827849;78;21128;-59
2022/01/12 07:07:46;;;;;;;42.58;16.45;;;;;;;1.56;76.97;101542.33;1827702;78;21139;-59
2022/01/12 07:10:17;;;;;;;47.53;17.20;;;;;;;1.56;77.04;101543.63;1825330;77;21065;-59
2022/01/12 07:12:46;;;;;;;40.80;16.02;;;;;;;1.54;76.96;101547.50;1848215;77;21062;-59
2022/01/12 07:15:15;;;;;;;37.10;15.32;;;;;;;1.50;76.97;101548.77;1851502;77;21172;-59
2022/01/12 07:17:50;;;;;;;41.92;16.75;;;;;;;1.50;76.99;101538.39;1851463;77;21476;-59
2022/01/12 07:20:16;;;;;;;41.98;15.78;;;;;;;1.58;76.78;101538.03;1850901;77;21088;-60
2022/01/12 07:22:45;;;;;;;42.35;16.30;;;;;;;1.61;76.73;101541.97;1851528;77;21500;-59
2022/01/12 07:25:16;;;;;;;37.60;14.87;;;;;;;1.60;76.83;101543.23;1851468;77;21449;-59
2022/01/12 07:27:45;;;;;;;40.65;14.75;;;;;;;1.64;76.93;101543.70;1851439;77;21175;-59
2022/01/12 07:30:14;;;;;;;38.50;14.98;;;;;;;1.66;76.97;101531.61;1851565;77;21128;-59
2022/01/12 07:32:42;;;;;;;39.48;15.38;;;;;;;1.62;77.11;101537.20;1851637;77;21062;-59
2022/01/12 07:35:11;;;;;;;37.58;14.33;;;;;;;1.62;77.20;101541.53;1851409;77;21100;-59
2022/01/12 07:37:40;;;;;;;39.88;13.80;;;;;;;1.66;77.14;101531.61;1851470;77;21086;-58
2022/01/12 07:40:09;;;;;;;36.53;14.20;;;;;;;1.69;77.01;101532.95;1851472;77;21497;-59
2022/01/12 07:42:38;;;;;;;36.93;14.65;;;;;;;1.67;77.08;101537.27;1851462;77;21155;-59
2022/01/12 07:45:19;;;;;;;45.98;16.82;;;;;;;1.64;77.12;101535.92;1851316;77;21099;-60
2022/01/12 07:47:48;;;;;;;36.68;15.00;;;;;;;1.66;77.13;101535.50;1851438;77;21516;-59
2022/01/12 07:50:17;;;;;;;34.05;15.10;;;;;;;1.59;77.13;101538.92;1851456;77;21517;-58
2022/01/12 07:52:45;;;;;;;37.23;13.32;;;;;;;1.55;77.18;101540.61;1851532;77;21136;-59
2022/01/12 07:55:14;;;;;;;41.28;15.40;;;;;;;1.52;77.26;101544.46;1851419;77;21354;-59
2022/01/12 07:57:43;;;;;;;36.95;15.25;;;;;;;1.50;77.21;101543.58;1851366;77;21062;-60
2022/01/12 08:00:12;;;;;;;28.80;12.40;;;;;;;1.46;77.29;101534.88;1851420;77;21457;-59
2022/01/12 08:02:41;;;;;;;36.53;15.63;;;;;;;1.44;77.24;101535.70;1851501;77;21042;-59
2022/01/12 08:05:11;;;;;;;43.87;16.15;;;;;;;1.44;77.33;101539.19;1851512;77;21042;-59
2022/01/12 08:07:40;;;;;;;40.33;15.43;;;;;;;1.40;77.20;101534.79;1851579;77;21051;-59
2022/01/12 08:10:10;;;;;;;43.92;15.30;;;;;;;1.36;77.21;101539.51;1851704;77;21042;-59
2022/01/12 08:12:39;;;;;;;44.85;17.57;;;;;;;1.38;77.27;101535.20;1851560;77;21481;-59
2022/01/12 08:15:10;;;;;;;42.25;15.48;;;;;;;1.37;77.36;101530.02;1851561;77;21062;-60
2022/01/12 08:17:39;;;;;;;38.63;14.90;;;;;;;1.39;77.45;101539.55;1851567;77;21054;-59
2022/01/12 08:20:12;;;;;;;49.90;17.02;;;;;;;1.41;77.43;101542.17;1851570;77;21507;-59
2022/01/12 08:22:41;;;;;;;40.90;15.43;;;;;;;1.39;77.42;101535.66;1851530;77;21047;-60
2022/01/12 08:25:10;;;;;;;40.30;15.45;;;;;;;1.37;77.37;101532.18;1851476;77;21132;-59
2022/01/12 08:27:39;;;;;;;47.75;17.05;;;;;;;1.37;77.38;101530.89;1851549;77;21575;-60
2022/01/12 08:30:16;;;;;;;38.20;13.68;;;;;;;1.39;77.20;101534.80;1851574;77;21489;-60
2022/01/12 08:32:41;;;;;;;29.52;12.07;;;;;;;1.33;77.19;101526.09;1851162;77;21046;-60
2022/01/12 08:35:10;;;;;;;39.15;15.23;;;;;;;1.23;77.22;101527.25;1851544;77;21038;-59
2022/01/12 08:37:39;;;;;;;43.80;14.43;;;;;;;1.19;77.37;101527.64;1851495;77;21558;-59
2022/01/12 08:40:09;;;;;;;33.15;14.28;;;;;;;1.24;77.28;101518.63;1851736;77;21014;-59
2022/01/12 08:42:38;;;;;;;37.93;14.50;;;;;;;1.25;77.19;101521.22;1851534;77;21071;-59
2022/01/12 08:45:09;;;;;;;31.12;13.50;;;;;;;1.26;77.23;101516.92;1851659;77;21019;-60
2022/01/12 08:47:39;;;;;;;31.93;12.95;;;;;;;1.25;77.30;101513.87;1851353;77;21610;-59
2022/01/12 08:50:08;;;;;;;41.25;13.88;;;;;;;1.24;77.15;101517.33;1851495;77;21038;-59
2022/01/12 08:52:37;;;;;;;33.85;12.45;;;;;;;1.20;77.12;101520.72;1851568;77;21026;-59
2022/01/12 08:55:06;;;;;;;32.78;13.48;;;;;;;1.18;77.24;101519.43;1851569;77;21113;-59
2022/01/12 08:57:35;;;;;;;37.63;13.32;;;;;;;1.20;77.28;101516.83;1851545;77;21147;-58
2022/01/12 09:00:06;;;;;;;34.30;15.38;;;;;;;1.20;77.23;101509.94;1851545;77;21054;-59
2022/01/12 09:02:35;;;;;;;30.77;13.10;;;;;;;1.23;77.20;101509.95;1851394;77;21148;-58
2022/01/12 09:05:05;;;;;;;33.55;12.75;;;;;;;1.28;77.07;101515.21;1851657;77;21050;-58
2022/01/12 09:07:35;;;;;;;30.85;12.70;;;;;;;1.29;76.95;101512.64;1851623;77;21059;-59
2022/01/12 09:10:05;;;;;;;31.25;13.55;;;;;;;1.28;76.94;101510.02;1851562;77;21034;-58
2022/01/12 09:12:36;;;;;;;25.30;10.90;;;;;;;1.27;77.02;101510.86;1851228;77;21184;-59
2022/01/12 09:15:07;;;;;;;30.27;12.85;;;;;;;1.29;76.80;101507.45;1851404;77;21144;-59
2022/01/12 09:17:37;;;;;;;35.45;13.72;;;;;;;1.25;76.89;101504.79;1851530;77;21101;-59
2022/01/12 09:20:08;;;;;;;25.77;11.75;;;;;;;1.23;76.90;101507.36;1851538;77;21133;-59
2022/01/12 09:22:40;;;;;;;36.65;12.35;;;;;;;1.28;76.86;101513.91;1851599;77;21066;-58
2022/01/12 09:25:10;;;;;;;40.50;13.45;;;;;;;1.33;76.75;101513.55;1851514;77;21054;-58
2022/01/12 09:27:39;;;;;;;28.32;12.63;;;;;;;1.31;76.80;101506.14;1851555;77;21050;-59
2022/01/12 09:30:11;;;;;;;33.58;13.88;;;;;;;1.31;76.83;101504.84;1851446;77;21107;-60
2022/01/12 09:32:41;;;;;;;39.23;15.55;;;;;;;1.37;76.72;101499.75;1867052;76;21033;-58
2022/01/12 09:35:11;;;;;;;26.30;11.30;;;;;;;1.39;76.68;101491.55;1875176;76;21569;-58
2022/01/12 09:37:40;;;;;;;29.12;12.18;;;;;;;1.38;76.53;101500.17;1882658;76;21111;-59
2022/01/12 09:40:10;;;;;;;28.52;13.00;;;;;;;1.33;76.54;101508.36;1850136;76;21224;-58
2022/01/12 09:42:46;;;;;;;32.93;12.90;;;;;;;1.34;76.52;101502.30;1887475;76;21054;-58
2022/01/12 09:45:18;;;;;;;28.32;13.40;;;;;;;1.33;76.39;101502.73;1865436;76;21041;-60
2022/01/12 09:47:49;;;;;;;26.40;12.55;;;;;;;1.31;76.40;101499.66;1883176;75;21124;-59
2022/01/12 09:50:21;;;;;;;30.43;12.53;;;;;;;1.30;76.42;101500.53;1864159;76;21115;-61
2022/01/12 09:52:50;;;;;;;29.10;12.63;;;;;;;1.24;76.50;101496.58;1884825;76;21026;-59
2022/01/12 09:55:20;;;;;;;29.90;12.73;;;;;;;1.22;76.66;101498.25;1884847;76;21037;-59
2022/01/12 09:57:50;;;;;;;26.25;11.60;;;;;;;1.22;76.57;101507.34;1868911;76;21029;-59
2022/01/12 10:00:25;;;;;;;16.65;8.75;;;;;;;1.21;76.34;101512.09;1848889;77;21061;-59
2022/01/12 10:02:54;;;;;;;32.38;11.53;;;;;;;1.22;76.30;101509.92;1851164;76;21123;-57
2022/01/12 10:05:31;;;;;;;23.55;10.03;;;;;;;1.25;76.02;101508.68;1884815;76;21484;-57
2022/01/12 10:08:15;;;;;;;24.60;10.98;;;;;;;1.24;75.90;101504.36;1847848;76;21030;-59
2022/01/12 10:10:46;;;;;;;20.52;10.75;;;;;;;1.23;75.95;101505.20;1880675;76;21123;-59
2022/01/12 10:13:23;;;;;;;23.27;11.40;;;;;;;1.22;76.03;101498.25;1866951;76;21499;-63
2022/01/12 10:18:50;;;;;;;17.50;9.90;;;;;;;1.22;75.99;101499.15;1891697;74;21033;-63
2022/01/12 10:21:40;;;;;;;19.42;9.88;;;;;;;1.26;75.76;101501.35;1893388;75;21115;-62
2022/01/12 10:24:12;;;;;;;28.92;12.23;;;;;;;1.21;75.68;101498.69;1892109;75;21057;-62
2022/01/12 10:26:45;;;;;;;26.30;10.50;;;;;;;1.21;75.63;101497.39;1874854;76;21492;-62
2022/01/12 10:29:20;;;;;;;24.47;11.73;;;;;;;1.19;75.73;101503.43;1919454;75;21522;-58
2022/01/12 10:31:51;;;;;;;24.30;11.00;;;;;;;1.20;75.62;101502.56;1899894;74;21530;-60
2022/01/12 10:34:29;;;;;;;27.85;13.10;;;;;;;1.18;75.46;101505.56;1890793;76;21162;-60
2022/01/12 10:36:58;;;;;;;26.02;11.97;;;;;;;1.17;75.59;101507.30;1892421;75;21052;-61
2022/01/12 10:39:29;;;;;;;30.90;11.75;;;;;;;1.12;75.76;101505.93;1892122;75;21033;-62
2022/01/12 10:42:00;;;;;;;29.12;12.55;;;;;;;1.11;75.87;101499.45;1890781;76;21107;-61
2022/01/12 10:44:40;;;;;;;26.52;12.93;;;;;;;1.09;75.81;101498.13;1890629;75;21483;-61
2022/01/12 10:47:17;;;;;;;22.40;11.83;;;;;;;1.10;75.79;101490.77;1892125;75;21041;-62
2022/01/12 10:49:55;;;;;;;19.07;9.43;;;;;;;1.08;75.70;101491.63;1892201;75;21040;-64
2022/01/12 10:52:26;;;;;;;27.90;12.13;;;;;;;1.06;75.75;101488.14;1892424;75;21060;-64
2022/01/12 10:55:01;;;;;;;27.98;11.65;;;;;;;1.03;75.79;101492.84;1891467;76;21127;-65
2022/01/12 10:57:33;;;;;;;31.93;13.70;;;;;;;0.99;76.01;101494.97;1892417;75;21037;-64
2022/01/12 11:00:07;;;;;;;28.10;12.33;;;;;;;0.99;76.02;101492.38;1887150;74;21491;-69
2022/01/12 11:02:38;;;;;;;30.62;13.48;;;;;;;0.97;76.09;101490.19;1882665;76;21596;-59
2022/01/12 11:05:08;;;;;;;26.33;11.97;;;;;;;0.99;76.13;101488.48;1883278;76;21428;-65
2022/01/12 11:07:37;;;;;;;30.62;12.78;;;;;;;1.03;76.11;101486.80;1873804;76;21076;-65
2022/01/12 11:10:09;;;;;;;34.60;12.93;;;;;;;1.01;76.04;101486.77;1891754;76;21166;-65
2022/01/12 11:12:40;;;;;;;26.12;11.15;;;;;;;1.04;75.96;101493.74;1891733;76;21021;-66
2022/01/12 11:15:11;;;;;;;31.68;14.68;;;;;;;1.02;75.92;101491.56;1891756;75;21026;-66
2022/01/12 11:17:43;;;;;;;29.05;12.07;;;;;;;1.00;76.13;101495.83;1891445;75;21199;-65
2022/01/12 11:20:27;;;;;;;27.00;12.88;;;;;;;1.02;76.09;101500.64;1891049;76;21065;-65
2022/01/12 11:23:12;;;;;;;27.58;11.35;;;;;;;1.00;75.97;101495.42;1891630;76;21077;-65
2022/01/12 11:25:49;;;;;;;29.30;12.93;;;;;;;1.03;75.76;101495.44;1892007;76;21156;-65
2022/01/12 11:28:26;;;;;;;29.63;12.43;;;;;;;1.06;75.58;101494.19;1890636;76;21053;-65
2022/01/12 11:30:58;;;;;;;28.47;13.00;;;;;;;1.04;75.60;101499.80;1891945;76;21101;-65
2022/01/12 11:33:35;;;;;;;30.52;13.78;;;;;;;1.03;75.58;101492.84;1891923;76;21074;-65
2022/01/12 11:36:24;;;;;;;31.00;11.73;;;;;;;1.03;75.68;101495.44;1892064;76;21492;-65
2022/01/12 11:39:10;;;;;;;33.38;13.78;;;;;;;1.02;75.75;101505.83;1891943;76;21042;-65
2022/01/12 11:41:42;;;;;;;31.70;13.95;;;;;;;1.03;75.61;101508.41;1892020;76;21104;-65
2022/01/12 11:44:23;;;;;;;34.03;14.10;;;;;;;1.01;75.55;101498.88;1892047;76;21046;-66
2022/01/12 11:46:57;;;;;;;28.23;13.32;;;;;;;1.01;75.60;101505.36;1892082;76;21038;-66
2022/01/12 11:49:30;;;;;;;39.50;13.53;;;;;;;0.92;75.70;101504.41;1892099;76;21190;-65
2022/01/12 11:52:04;;;;;;;31.17;13.40;;;;;;;0.88;75.82;101505.20;1892095;76;21021;-65
2022/01/12 11:54:36;;;;;;;36.30;13.25;;;;;;;0.90;75.76;101500.03;1892002;75;21581;-66
2022/01/12 11:57:11;;;;;;;26.87;12.78;;;;;;;0.92;75.65;101493.14;1892219;76;21082;-66
2022/01/12 11:59:54;;;;;;;26.95;12.78;;;;;;;0.92;75.57;101499.62;1891961;74;21073;-65
2022/01/12 12:02:36;;;;;;;;;;;;;;;0.88;75.52;101504.34;1894899;76;21070;-65
2022/01/12 12:05:20;;;;;;;33.98;13.55;;;;;;;0.87;75.46;101509.09;1891756;74;20139;-65
2022/01/12 12:07:53;;;;;;;;;;;;;;;0.78;75.50;101509.83;1894773;76;21123;-65
2022/01/12 12:10:28;;;;;;;26.07;12.30;;;;;;;0.75;75.66;101516.27;1891977;76;20133;-65
2022/01/12 12:13:00;;;;;;;35.68;15.50;;;;;;;0.67;75.68;101514.86;1892224;76;21037;-65
2022/01/12 12:15:29;;;;;;;33.85;13.98;;;;;;;0.63;75.90;101515.67;1891918;74;21120;-65
2022/01/12 12:18:03;;;;;;;36.00;13.03;;;;;;;0.64;75.85;101514.81;1891894;75;21050;-65
2022/01/12 12:20:29;;;;;;;30.17;12.85;;;;;;;0.69;75.81;101520.08;1891336;76;21066;-65
2022/01/12 12:22:58;;;;;;;34.95;15.03;;;;;;;0.69;75.87;101521.37;1891991;76;21073;-65
2022/01/12 12:25:29;;;;;;;31.25;12.28;;;;;;;0.67;76.07;101516.59;1892144;76;21037;-65
2022/01/12 12:28:00;;;;;;;29.45;12.10;;;;;;;0.65;76.15;101519.59;1892007;75;21203;-65
2022/01/12 12:30:31;;;;;;;29.72;12.65;;;;;;;0.59;76.29;101524.27;1892000;76;21120;-65
2022/01/12 12:33:06;;;;;;;32.80;14.50;;;;;;;0.58;76.36;101526.39;1891891;75;21050;-63
2022/01/12 12:35:36;;;;;;;31.23;13.48;;;;;;;0.56;76.38;101531.55;1892042;76;21042;-65
2022/01/12 12:38:07;;;;;;;27.55;12.73;;;;;;;0.57;76.42;101515.56;1892036;76;21444;-65
2022/01/12 12:40:40;;;;;;;31.30;13.90;;;;;;;0.61;76.37;101521.67;1891540;76;21113;-65
2022/01/12 12:43:20;;;;;;;27.73;13.55;;;;;;;0.59;76.36;101526.86;1892057;76;21108;-66
2022/01/12 12:45:51;;;;;;;31.23;12.98;;;;;;;0.59;76.31;101534.63;1890875;76;21046;-66
2022/01/12 12:48:23;;;;;;;31.25;13.45;;;;;;;0.58;76.34;101528.55;1892143;76;21489;-66
2022/01/12 12:51:08;;;;;;;32.83;14.00;;;;;;;0.61;76.29;101536.81;1891979;76;21124;-66